Terminal Aerodrome Forecast
Issued by NWS Wilmington, NC

Home | Current Version | Previous Version | Text Only | Print | Product List | Glossary On
Versions: 1 2 3 4 5 6 7 8 9 10 11 12 13 14 15 16 17 18 19 20 21 22 23 24 25
000
FTUS42 KILM 031700
TAFFLO
TAF
KFLO 031739Z 0318/0418 08007KT P6SM -RA OVC015
     FM040000 VRB03KT 3SM -DZ BR OVC004
     FM041400 21010G18KT P6SM SCT004 BKN008 OVC015
     FM041600 23014G22KT P6SM SCT020 BKN050=

USA.gov is the U.S. government's official web portal to all federal, state and local government web resources and services.